createdAt,value
2022-11-27T00:02:24.336Z,2.97
2022-11-27T00:05:26.133Z,3.22
2022-11-27T00:08:28.046Z,3.20
2022-11-27T00:11:31.449Z,2.85
2022-11-27T00:14:33.159Z,2.80
2022-11-27T00:17:34.860Z,2.55
2022-11-27T00:20:37.098Z,2.33
2022-11-27T00:23:39.298Z,2.88
2022-11-27T00:26:41.025Z,3.05
2022-11-27T00:29:42.929Z,2.67
2022-11-27T00:32:44.669Z,2.80
2022-11-27T00:35:46.414Z,2.55
2022-11-27T00:38:48.121Z,2.92
2022-11-27T00:41:49.856Z,2.92
2022-11-27T00:44:51.585Z,2.33
2022-11-27T00:47:53.413Z,2.95
2022-11-27T00:51:03.809Z,3.00
2022-11-27T00:54:05.946Z,2.70
2022-11-27T00:57:07.637Z,3.00
2022-11-27T01:00:09.900Z,2.95
2022-11-27T01:03:11.709Z,2.83
2022-11-27T01:06:14.734Z,2.90
2022-11-27T01:09:16.665Z,2.60
2022-11-27T01:12:18.386Z,2.70
2022-11-27T01:15:20.087Z,2.47
2022-11-27T01:18:21.869Z,2.75
2022-11-27T01:21:24.173Z,2.65
2022-11-27T01:24:25.944Z,2.50
2022-11-27T01:27:27.773Z,2.70
2022-11-27T01:30:29.981Z,2.25
2022-11-27T01:33:31.930Z,2.40
2022-11-27T01:36:34.720Z,2.47
2022-11-27T01:39:36.439Z,2.63
2022-11-27T01:42:38.126Z,2.50
2022-11-27T01:45:39.852Z,2.60
2022-11-27T01:48:41.630Z,2.50
2022-11-27T01:52:03.539Z,2.70
2022-11-27T01:55:09.010Z,2.60
2022-11-27T01:58:13.998Z,2.22
2022-11-27T02:01:16.143Z,2.53
2022-11-27T02:04:18.659Z,2.60
2022-11-27T02:07:20.919Z,2.70
2022-11-27T02:10:47.767Z,2.47
2022-11-27T02:14:12.601Z,2.78
2022-11-27T02:17:24.840Z,2.40
2022-11-27T02:20:29.315Z,2.40
2022-11-27T02:23:58.592Z,2.35
2022-11-27T02:27:15.461Z,2.20
2022-11-27T02:30:17.440Z,2.40
2022-11-27T02:33:22.015Z,2.50
2022-11-27T02:36:30.719Z,2.40
2022-11-27T02:39:43.195Z,2.03
2022-11-27T02:42:57.398Z,2.00
2022-11-27T02:46:00.898Z,2.22
2022-11-27T02:49:07.301Z,2.63
2022-11-27T02:52:11.682Z,2.50
2022-11-27T02:55:18.882Z,2.50
2022-11-27T02:58:24.777Z,2.28
2022-11-27T03:01:32.295Z,2.60
2022-11-27T03:07:48.233Z,2.30
2022-11-27T03:11:10.334Z,2.13
2022-11-27T03:14:14.287Z,2.00
2022-11-27T03:17:37.478Z,2.08
2022-11-27T03:20:43.203Z,2.00
2022-11-27T03:23:44.972Z,2.15
2022-11-27T03:26:47.148Z,2.00
2022-11-27T03:29:58.139Z,2.13
2022-11-27T03:33:01.215Z,2.40
2022-11-27T03:36:09.934Z,1.92
2022-11-27T03:39:11.924Z,1.95
2022-11-27T03:42:34.881Z,1.95
2022-11-27T03:45:53.302Z,2.08
2022-11-27T03:49:10.392Z,2.22
2022-11-27T03:52:38.920Z,2.17
2022-11-27T03:55:43.453Z,2.17
2022-11-27T03:58:56.345Z,2.33
2022-11-27T04:01:58.186Z,1.83
2022-11-27T04:04:59.929Z,2.03
2022-11-27T04:08:01.625Z,1.90
2022-11-27T04:11:03.518Z,2.20
2022-11-27T04:14:05.266Z,1.83
2022-11-27T04:17:07.933Z,2.33
2022-11-27T04:20:12.225Z,1.98
2022-11-27T04:23:13.961Z,2.05
2022-11-27T04:26:15.741Z,2.20
2022-11-27T04:29:17.891Z,2.10
2022-11-27T04:32:19.628Z,1.90
2022-11-27T04:35:21.314Z,1.98
2022-11-27T04:38:23.303Z,1.70
2022-11-27T04:41:25.087Z,1.80
2022-11-27T04:44:27.054Z,2.30
2022-11-27T04:47:28.895Z,1.90
2022-11-27T04:50:31.001Z,1.80
2022-11-27T04:53:32.714Z,1.73
2022-11-27T04:56:34.462Z,1.92
2022-11-27T04:59:38.048Z,1.90
2022-11-27T05:02:40.232Z,1.83
2022-11-27T05:05:41.982Z,2.13
2022-11-27T05:08:43.727Z,1.77
2022-11-27T05:11:45.717Z,1.85
2022-11-27T05:14:47.424Z,1.75
2022-11-27T05:17:49.150Z,1.92
2022-11-27T05:21:02.796Z,1.60
2022-11-27T05:24:05.126Z,2.00
2022-11-27T05:27:06.866Z,1.75
2022-11-27T05:30:08.997Z,1.60
2022-11-27T05:33:10.860Z,2.15
2022-11-27T05:36:12.586Z,1.58
2022-11-27T05:39:14.410Z,2.08
2022-11-27T05:42:16.138Z,2.08
2022-11-27T05:45:17.957Z,1.58
2022-11-27T05:48:19.687Z,1.77
2022-11-27T05:51:21.780Z,1.92
2022-11-27T05:54:23.490Z,1.80
2022-11-27T05:57:25.228Z,1.77
2022-11-27T06:00:27.139Z,1.80
2022-11-27T06:03:28.954Z,1.80
2022-11-27T06:06:30.960Z,1.50
2022-11-27T06:09:32.658Z,1.60
2022-11-27T06:12:34.361Z,1.40
2022-11-27T06:15:37.759Z,1.70
2022-11-27T06:18:39.706Z,1.33
2022-11-27T06:21:41.413Z,1.42
2022-11-27T06:24:43.352Z,1.65
2022-11-27T06:27:45.171Z,1.50
2022-11-27T06:30:46.889Z,1.88
2022-11-27T06:33:50.314Z,1.60
2022-11-27T06:36:52.176Z,1.58
2022-11-27T06:39:53.869Z,1.70
2022-11-27T06:42:55.603Z,2.00
2022-11-27T06:45:58.874Z,1.55
2022-11-27T06:49:01.288Z,1.70
2022-11-27T06:52:03.016Z,1.55
2022-11-27T06:55:05.070Z,1.52
2022-11-27T06:58:06.779Z,1.55
2022-11-27T07:01:12.087Z,1.50
2022-11-27T07:04:15.022Z,1.65
2022-11-27T07:07:16.821Z,1.80
2022-11-27T07:10:18.584Z,1.40
2022-11-27T07:13:20.271Z,1.77
2022-11-27T07:16:22.116Z,1.83
2022-11-27T07:19:23.899Z,1.55
2022-11-27T07:22:25.693Z,1.63
2022-11-27T07:25:27.546Z,1.70
2022-11-27T07:28:29.261Z,1.48
2022-11-27T07:31:31.301Z,1.85
2022-11-27T07:34:33.087Z,1.50
2022-11-27T07:37:34.821Z,1.52
2022-11-27T07:40:38.475Z,1.73
2022-11-27T07:43:40.932Z,1.50
2022-11-27T07:46:42.673Z,1.55
2022-11-27T07:49:44.381Z,1.75
2022-11-27T07:52:46.116Z,1.73
2022-11-27T07:55:47.810Z,1.55
2022-11-27T07:58:49.613Z,1.90
2022-11-27T08:01:51.368Z,1.50
2022-11-27T08:04:53.125Z,1.60
2022-11-27T08:07:55.289Z,1.35
2022-11-27T08:10:57.049Z,1.48
2022-11-27T08:14:07.209Z,1.80
2022-11-27T08:17:12.197Z,1.90
2022-11-27T08:20:13.933Z,1.63
2022-11-27T08:23:15.647Z,1.52
2022-11-27T08:26:17.482Z,1.75
2022-11-27T08:29:19.233Z,1.67
2022-11-27T08:32:21.044Z,1.67
2022-11-27T08:35:22.884Z,1.90
2022-11-27T08:38:25.192Z,1.40
2022-11-27T08:41:26.917Z,1.40
2022-11-27T08:44:28.618Z,1.83
2022-11-27T08:47:31.783Z,1.58
2022-11-27T08:50:33.480Z,1.38
2022-11-27T08:53:37.345Z,1.80
2022-11-27T08:56:39.057Z,1.55
2022-11-27T08:59:40.834Z,1.35
2022-11-27T09:02:42.558Z,1.50
2022-11-27T09:05:44.735Z,3.13
2022-11-27T09:08:46.584Z,2.78
2022-11-27T09:11:48.367Z,2.90
2022-11-27T09:14:50.098Z,3.08
2022-11-27T09:17:51.858Z,3.15
2022-11-27T09:20:59.869Z,3.20
2022-11-27T09:24:02.297Z,4.20
2022-11-27T09:27:04.178Z,8.40
2022-11-27T09:30:07.590Z,9.23
2022-11-27T09:33:09.320Z,8.30
2022-11-27T09:36:20.238Z,8.18
2022-11-27T09:39:22.710Z,8.45
2022-11-27T09:42:42.684Z,8.38
2022-11-27T09:45:50.148Z,8.00
2022-11-27T09:48:53.680Z,6.68
2022-11-27T09:52:00.085Z,6.80
2022-11-27T09:55:37.755Z,7.00
2022-11-27T09:59:01.391Z,7.10
2022-11-27T10:02:03.203Z,6.90
2022-11-27T10:05:22.885Z,5.88
2022-11-27T10:08:30.684Z,6.10
2022-11-27T10:11:48.991Z,6.07
2022-11-27T10:15:18.880Z,5.88
2022-11-27T10:18:40.523Z,6.13
2022-11-27T10:22:34.200Z,6.03
2022-11-27T10:25:40.616Z,5.43
2022-11-27T10:28:54.431Z,6.03
2022-11-27T10:32:01.309Z,5.72
2022-11-27T10:35:10.656Z,5.15
2022-11-27T10:38:26.693Z,4.68
2022-11-27T10:41:49.120Z,4.65
2022-11-27T10:44:59.755Z,4.97
2022-11-27T10:48:01.420Z,4.95
2022-11-27T10:51:03.240Z,4.28
2022-11-27T10:54:07.836Z,4.30
2022-11-27T10:57:44.018Z,4.82
2022-11-27T11:00:46.120Z,4.97
2022-11-27T11:03:48.081Z,7.43
2022-11-27T11:06:50.855Z,7.03
2022-11-27T11:09:53.906Z,6.25
2022-11-27T11:13:17.503Z,6.95
2022-11-27T11:16:34.830Z,6.13
2022-11-27T11:19:38.919Z,7.10
2022-11-27T11:22:46.747Z,6.38
2022-11-27T11:25:54.368Z,6.15
2022-11-27T11:32:10.090Z,5.38
2022-11-27T11:35:28.616Z,5.30
2022-11-27T11:38:32.328Z,4.35
2022-11-27T11:41:38.666Z,5.63
2022-11-27T11:44:40.846Z,5.07
2022-11-27T11:47:51.483Z,4.63
2022-11-27T11:51:03.449Z,4.78
2022-11-27T11:54:40.313Z,4.95
2022-11-27T11:58:10.215Z,4.60
2022-11-27T12:01:43.764Z,4.70
2022-11-27T12:04:59.994Z,5.22
2022-11-27T12:08:26.288Z,4.32
2022-11-27T12:11:39.607Z,5.35
2022-11-27T12:15:04.012Z,4.35
2022-11-27T12:18:35.121Z,7.45
2022-11-27T12:21:58.304Z,5.65
2022-11-27T12:25:21.444Z,4.05
2022-11-27T12:28:48.312Z,4.60
2022-11-27T12:31:57.586Z,4.03
2022-11-27T12:35:26.007Z,4.30
2022-11-27T12:39:15.741Z,6.43
2022-11-27T12:42:29.781Z,4.97
2022-11-27T12:45:51.279Z,4.65
2022-11-27T12:49:06.249Z,5.20
2022-11-27T12:52:22.719Z,4.15
2022-11-27T12:55:30.834Z,3.83
2022-11-27T12:58:37.446Z,10.75
2022-11-27T13:02:04.124Z,7.50
2022-11-27T13:05:28.185Z,5.07
2022-11-27T13:08:55.404Z,5.03
2022-11-27T13:11:57.708Z,5.78
2022-11-27T13:15:12.426Z,4.60
2022-11-27T13:18:34.981Z,3.88
2022-11-27T13:21:39.486Z,4.43
2022-11-27T13:24:41.387Z,4.30
2022-11-27T13:27:46.534Z,4.13
2022-11-27T13:30:49.510Z,4.28
2022-11-27T13:33:57.468Z,4.47
2022-11-27T13:37:04.569Z,4.43
2022-11-27T13:40:16.572Z,4.30
2022-11-27T13:43:28.930Z,4.18
2022-11-27T13:46:42.444Z,3.88
2022-11-27T13:49:46.310Z,4.32
2022-11-27T13:53:00.577Z,4.47
2022-11-27T13:56:02.957Z,4.10
2022-11-27T13:59:22.944Z,4.45
2022-11-27T14:02:26.102Z,4.35
2022-11-27T14:05:43.383Z,4.30
2022-11-27T14:09:00.438Z,4.07
2022-11-27T14:12:13.388Z,3.67
2022-11-27T14:15:18.055Z,4.10
2022-11-27T14:18:21.872Z,3.72
2022-11-27T14:21:35.591Z,4.10
2022-11-27T14:24:45.742Z,3.47
2022-11-27T14:27:53.634Z,3.83
2022-11-27T14:30:58.375Z,3.90
2022-11-27T14:34:23.186Z,3.33
2022-11-27T14:37:28.658Z,4.75
2022-11-27T14:40:30.379Z,5.00
2022-11-27T14:43:32.125Z,5.65
2022-11-27T14:46:36.668Z,51.45
2022-11-27T14:49:38.644Z,25.85
2022-11-27T14:52:43.138Z,14.52
2022-11-27T14:55:45.166Z,12.20
2022-11-27T14:58:56.932Z,12.10
2022-11-27T15:01:58.699Z,12.15
2022-11-27T15:05:05.731Z,12.18
2022-11-27T15:08:09.780Z,11.02
2022-11-27T15:11:30.059Z,10.43
2022-11-27T15:14:37.119Z,10.32
2022-11-27T15:17:40.282Z,10.50
2022-11-27T15:20:44.856Z,9.02
2022-11-27T15:23:49.744Z,9.82
2022-11-27T15:26:51.490Z,8.80
2022-11-27T15:29:53.205Z,8.90
2022-11-27T15:32:55.915Z,8.90
2022-11-27T15:36:12.991Z,8.95
2022-11-27T15:39:21.352Z,8.23
2022-11-27T15:42:23.985Z,8.63
2022-11-27T15:45:32.778Z,8.25
2022-11-27T15:48:34.529Z,7.82
2022-11-27T15:51:36.211Z,8.00
2022-11-27T15:54:38.037Z,8.07
2022-11-27T15:57:39.831Z,8.00
2022-11-27T16:00:41.598Z,7.57
2022-11-27T16:03:43.427Z,7.47
2022-11-27T16:06:45.609Z,6.60
2022-11-27T16:09:47.685Z,6.22
2022-11-27T16:12:49.437Z,5.68
2022-11-27T16:15:51.165Z,5.72
2022-11-27T16:18:57.004Z,6.28
2022-11-27T16:21:58.719Z,6.18
2022-11-27T16:25:00.436Z,5.78
2022-11-27T16:28:03.286Z,6.43
2022-11-27T16:31:09.574Z,5.80
2022-11-27T16:34:11.422Z,5.55
2022-11-27T16:37:18.395Z,6.40
2022-11-27T16:40:20.541Z,5.38
2022-11-27T16:43:22.735Z,5.68
2022-11-27T16:46:30.689Z,5.50
2022-11-27T16:49:32.839Z,5.90
2022-11-27T16:52:35.946Z,5.65
2022-11-27T16:55:37.995Z,6.10
2022-11-27T16:58:42.314Z,5.75
2022-11-27T17:01:44.497Z,6.03
2022-11-27T17:04:46.384Z,5.15
2022-11-27T17:07:48.169Z,5.40
2022-11-27T17:10:50.023Z,4.80
2022-11-27T17:13:54.650Z,5.57
2022-11-27T17:16:56.485Z,4.95
2022-11-27T17:20:00.505Z,4.72
2022-11-27T17:23:02.664Z,4.68
2022-11-27T17:26:12.168Z,4.78
2022-11-27T17:29:17.016Z,4.95
2022-11-27T17:32:18.765Z,4.63
2022-11-27T17:35:20.470Z,4.75
2022-11-27T17:38:22.290Z,4.20
2022-11-27T17:41:24.123Z,4.53
2022-11-27T17:44:25.902Z,4.63
2022-11-27T17:47:27.866Z,4.28
2022-11-27T17:50:29.960Z,4.47
2022-11-27T17:53:32.717Z,5.10
2022-11-27T17:56:35.190Z,4.70
2022-11-27T17:59:37.294Z,4.97
2022-11-27T18:02:39.093Z,4.20
2022-11-27T18:05:41.047Z,4.47
2022-11-27T18:08:43.547Z,4.28
2022-11-27T18:11:45.284Z,4.43
2022-11-27T18:14:49.896Z,4.30
2022-11-27T18:17:52.506Z,3.80
2022-11-27T18:20:54.256Z,3.92
2022-11-27T18:27:18.548Z,3.92
2022-11-27T18:30:20.365Z,4.63
2022-11-27T18:33:22.087Z,4.13
2022-11-27T18:36:24.042Z,4.05
2022-11-27T18:39:26.603Z,3.88
2022-11-27T18:42:30.607Z,4.05
2022-11-27T18:45:35.556Z,4.22
2022-11-27T18:48:39.605Z,3.17
2022-11-27T18:51:41.581Z,3.78
2022-11-27T18:54:44.269Z,3.70
2022-11-27T18:57:46.990Z,3.20
2022-11-27T19:00:48.798Z,3.78
2022-11-27T19:03:51.273Z,3.85
2022-11-27T19:06:53.249Z,3.88
2022-11-27T19:09:56.374Z,4.35
2022-11-27T19:12:58.212Z,4.50
2022-11-27T19:16:00.236Z,2.88
2022-11-27T19:19:03.868Z,3.92
2022-11-27T19:22:05.943Z,3.65
2022-11-27T19:25:08.297Z,3.42
2022-11-27T19:28:11.565Z,3.15
2022-11-27T19:31:13.780Z,3.63
2022-11-27T19:34:15.562Z,3.22
2022-11-27T19:37:28.880Z,3.55
2022-11-27T19:40:38.578Z,19.88
2022-11-27T19:43:41.057Z,13.30
2022-11-27T19:46:44.748Z,8.23
2022-11-27T19:49:47.542Z,6.93
2022-11-27T19:52:49.440Z,7.32
2022-11-27T19:55:54.996Z,7.03
2022-11-27T19:58:58.115Z,7.28
2022-11-27T20:02:00.003Z,6.40
2022-11-27T20:05:04.260Z,8.95
2022-11-27T20:08:06.080Z,7.80
2022-11-27T20:11:10.010Z,7.72
2022-11-27T20:14:11.965Z,8.32
2022-11-27T20:17:13.771Z,6.95
2022-11-27T20:20:16.847Z,6.35
2022-11-27T20:23:18.588Z,6.45
2022-11-27T20:26:23.237Z,6.03
2022-11-27T20:29:25.005Z,6.22
2022-11-27T20:32:27.206Z,6.15
2022-11-27T20:35:28.996Z,6.47
2022-11-27T20:38:32.315Z,6.10
2022-11-27T20:41:34.044Z,6.18
2022-11-27T20:44:36.055Z,6.43
2022-11-27T20:47:37.817Z,6.10
2022-11-27T20:50:41.186Z,5.97
2022-11-27T20:53:44.785Z,5.88
2022-11-27T20:56:50.104Z,5.50
2022-11-27T20:59:52.015Z,6.07
2022-11-27T21:02:53.982Z,6.22
2022-11-27T21:05:56.288Z,5.18
2022-11-27T21:09:01.854Z,5.18
2022-11-27T21:12:06.241Z,5.75
2022-11-27T21:15:08.875Z,5.38
2022-11-27T21:18:10.638Z,5.07
2022-11-27T21:21:14.008Z,5.10
2022-11-27T21:24:17.625Z,5.28
2022-11-27T21:27:19.365Z,5.30
2022-11-27T21:30:21.224Z,5.45
2022-11-27T21:33:23.731Z,4.93
2022-11-27T21:36:28.014Z,5.03
2022-11-27T21:39:30.138Z,4.32
2022-11-27T21:42:32.711Z,4.95
2022-11-27T21:45:37.245Z,4.75
2022-11-27T21:48:40.928Z,4.90
2022-11-27T21:51:42.993Z,4.35
2022-11-27T21:54:45.046Z,4.55
2022-11-27T21:57:48.279Z,4.25
2022-11-27T22:00:50.552Z,4.50
2022-11-27T22:03:56.569Z,3.72
2022-11-27T22:06:58.254Z,4.22
2022-11-27T22:09:59.944Z,4.82
2022-11-27T22:13:01.762Z,4.82
2022-11-27T22:16:09.364Z,4.40
2022-11-27T22:19:11.233Z,4.00
2022-11-27T22:22:12.961Z,4.20
2022-11-27T22:25:14.891Z,3.85
2022-11-27T22:28:16.965Z,4.68
2022-11-27T22:31:23.064Z,4.47
2022-11-27T22:34:24.876Z,4.47
2022-11-27T22:37:27.012Z,3.90
2022-11-27T22:40:30.843Z,3.70
2022-11-27T22:43:35.001Z,3.60
2022-11-27T22:46:39.652Z,3.50
2022-11-27T22:49:41.538Z,4.25
2022-11-27T22:52:43.346Z,3.70
2022-11-27T22:55:45.158Z,4.25
2022-11-27T22:58:47.022Z,3.88
2022-11-27T23:01:48.934Z,3.65
2022-11-27T23:04:51.576Z,4.22
2022-11-27T23:07:53.649Z,3.85
2022-11-27T23:10:56.206Z,4.15
2022-11-27T23:13:58.375Z,3.83
2022-11-27T23:17:00.195Z,4.03
2022-11-27T23:20:01.968Z,3.88
2022-11-27T23:23:03.670Z,3.53
2022-11-27T23:26:07.407Z,3.97
2022-11-27T23:29:09.583Z,3.67
2022-11-27T23:32:11.487Z,3.55
2022-11-27T23:35:13.263Z,3.80
2022-11-27T23:38:14.999Z,4.03
2022-11-27T23:41:21.980Z,3.85
2022-11-27T23:44:23.804Z,3.70
2022-11-27T23:47:25.537Z,3.67
2022-11-27T23:50:27.255Z,3.75
2022-11-27T23:53:28.986Z,3.60
2022-11-27T23:56:32.025Z,4.13
2022-11-27T23:59:33.799Z,3.70
